< < Back
Terminal Aerodrome Forecast


Current Version              Previous Versions:   1  2  3  4  5  6  7  8  9  

Terminal Aerodrome Forecast

989
FTUS44 KBMX 231100
TAFANB
TAF
KANB 231125Z 2312/2412 VRB03KT P6SM SKC
     FM231500 36006KT P6SM SKC=



Latest METAR

400
SAUS70 KWBC 231500
MTRANB
METAR KANB 231453Z AUTO 01008KT 10SM CLR 20/07 A3000 RMK AO2 SLP157
T02000067 51013


USA.gov is the U.S. government's official web portal to all federal, state and local government web resources and services.